sensor_id;sensor_type;location;lat;lon;timestamp;P1;durP1;ratioP1;P2;durP2;ratioP2
65691;SDS011;52411;52.716;6.696;2024-02-23T00:01:28;0.85;;;0.40;;
65691;SDS011;52411;52.716;6.696;2024-02-23T00:03:54;0.63;;;0.40;;
65691;SDS011;52411;52.716;6.696;2024-02-23T00:06:20;0.38;;;0.38;;
65691;SDS011;52411;52.716;6.696;2024-02-23T00:08:47;0.40;;;0.40;;
65691;SDS011;52411;52.716;6.696;2024-02-23T00:11:13;0.60;;;0.50;;
65691;SDS011;52411;52.716;6.696;2024-02-23T00:13:39;0.40;;;0.40;;
65691;SDS011;52411;52.716;6.696;2024-02-23T00:16:04;0.45;;;0.40;;
65691;SDS011;52411;52.716;6.696;2024-02-23T00:18:30;0.30;;;0.30;;
65691;SDS011;52411;52.716;6.696;2024-02-23T00:20:56;0.40;;;0.40;;
65691;SDS011;52411;52.716;6.696;2024-02-23T00:23:21;0.63;;;0.30;;
65691;SDS011;52411;52.716;6.696;2024-02-23T00:25:47;1.27;;;0.50;;
65691;SDS011;52411;52.716;6.696;2024-02-23T00:28:13;0.45;;;0.43;;
65691;SDS011;52411;52.716;6.696;2024-02-23T00:30:38;0.65;;;0.60;;
65691;SDS011;52411;52.716;6.696;2024-02-23T00:33:04;0.77;;;0.65;;
65691;SDS011;52411;52.716;6.696;2024-02-23T00:35:30;0.70;;;0.60;;
65691;SDS011;52411;52.716;6.696;2024-02-23T00:37:56;0.40;;;0.40;;
65691;SDS011;52411;52.716;6.696;2024-02-23T00:40:21;0.40;;;0.40;;
65691;SDS011;52411;52.716;6.696;2024-02-23T00:42:48;0.50;;;0.50;;
65691;SDS011;52411;52.716;6.696;2024-02-23T00:45:14;0.40;;;0.40;;
65691;SDS011;52411;52.716;6.696;2024-02-23T00:47:40;0.60;;;0.60;;
65691;SDS011;52411;52.716;6.696;2024-02-23T00:50:05;0.40;;;0.40;;
65691;SDS011;52411;52.716;6.696;2024-02-23T00:52:31;0.40;;;0.40;;
65691;SDS011;52411;52.716;6.696;2024-02-23T00:54:57;0.50;;;0.50;;
65691;SDS011;52411;52.716;6.696;2024-02-23T00:57:23;0.57;;;0.57;;
65691;SDS011;52411;52.716;6.696;2024-02-23T00:59:54;0.50;;;0.50;;
65691;SDS011;52411;52.716;6.696;2024-02-23T01:02:21;0.50;;;0.50;;
65691;SDS011;52411;52.716;6.696;2024-02-23T01:04:46;0.50;;;0.50;;
65691;SDS011;52411;52.716;6.696;2024-02-23T01:07:12;0.40;;;0.40;;
65691;SDS011;52411;52.716;6.696;2024-02-23T01:09:38;1.27;;;0.60;;
65691;SDS011;52411;52.716;6.696;2024-02-23T01:12:03;0.50;;;0.50;;
65691;SDS011;52411;52.716;6.696;2024-02-23T01:14:29;0.40;;;0.40;;
65691;SDS011;52411;52.716;6.696;2024-02-23T01:16:55;0.50;;;0.50;;
65691;SDS011;52411;52.716;6.696;2024-02-23T01:19:21;0.70;;;0.63;;
65691;SDS011;52411;52.716;6.696;2024-02-23T01:21:46;0.75;;;0.60;;
65691;SDS011;52411;52.716;6.696;2024-02-23T01:24:12;0.85;;;0.60;;
65691;SDS011;52411;52.716;6.696;2024-02-23T01:26:37;0.68;;;0.50;;
65691;SDS011;52411;52.716;6.696;2024-02-23T01:29:03;1.15;;;0.60;;
65691;SDS011;52411;52.716;6.696;2024-02-23T01:31:29;0.40;;;0.40;;
65691;SDS011;52411;52.716;6.696;2024-02-23T01:33:54;0.60;;;0.60;;
65691;SDS011;52411;52.716;6.696;2024-02-23T01:36:20;0.55;;;0.52;;
65691;SDS011;52411;52.716;6.696;2024-02-23T01:38:45;0.98;;;0.70;;
65691;SDS011;52411;52.716;6.696;2024-02-23T01:41:11;0.95;;;0.77;;
65691;SDS011;52411;52.716;6.696;2024-02-23T01:43:37;1.00;;;0.68;;
65691;SDS011;52411;52.716;6.696;2024-02-23T01:46:03;1.30;;;0.95;;
65691;SDS011;52411;52.716;6.696;2024-02-23T01:48:30;1.15;;;1.00;;
65691;SDS011;52411;52.716;6.696;2024-02-23T01:50:56;1.15;;;0.88;;
65691;SDS011;52411;52.716;6.696;2024-02-23T01:53:22;1.27;;;0.90;;
65691;SDS011;52411;52.716;6.696;2024-02-23T01:55:50;1.17;;;1.10;;
65691;SDS011;52411;52.716;6.696;2024-02-23T01:58:16;0.80;;;0.77;;
65691;SDS011;52411;52.716;6.696;2024-02-23T02:00:43;0.70;;;0.70;;
65691;SDS011;52411;52.716;6.696;2024-02-23T02:03:08;2.20;;;1.15;;
65691;SDS011;52411;52.716;6.696;2024-02-23T02:05:35;4.15;;;0.80;;
65691;SDS011;52411;52.716;6.696;2024-02-23T02:08:02;0.82;;;0.70;;
65691;SDS011;52411;52.716;6.696;2024-02-23T02:10:28;1.52;;;1.05;;
65691;SDS011;52411;52.716;6.696;2024-02-23T02:12:54;1.73;;;1.00;;
65691;SDS011;52411;52.716;6.696;2024-02-23T02:15:19;2.00;;;1.23;;
65691;SDS011;52411;52.716;6.696;2024-02-23T02:17:47;3.42;;;1.17;;
65691;SDS011;52411;52.716;6.696;2024-02-23T02:20:13;2.92;;;1.10;;
65691;SDS011;52411;52.716;6.696;2024-02-23T02:22:39;5.28;;;1.67;;
65691;SDS011;52411;52.716;6.696;2024-02-23T02:25:05;2.25;;;1.63;;
65691;SDS011;52411;52.716;6.696;2024-02-23T02:27:31;4.78;;;1.90;;
65691;SDS011;52411;52.716;6.696;2024-02-23T02:29:57;3.30;;;1.88;;
65691;SDS011;52411;52.716;6.696;2024-02-23T02:32:23;2.83;;;1.58;;
65691;SDS011;52411;52.716;6.696;2024-02-23T02:34:49;2.17;;;1.63;;
65691;SDS011;52411;52.716;6.696;2024-02-23T02:37:15;2.17;;;1.45;;
65691;SDS011;52411;52.716;6.696;2024-02-23T02:39:40;4.50;;;1.63;;
65691;SDS011;52411;52.716;6.696;2024-02-23T02:42:06;6.07;;;1.80;;
65691;SDS011;52411;52.716;6.696;2024-02-23T02:44:32;2.80;;;1.70;;
65691;SDS011;52411;52.716;6.696;2024-02-23T02:46:57;2.92;;;2.00;;
65691;SDS011;52411;52.716;6.696;2024-02-23T02:49:23;5.20;;;1.67;;
65691;SDS011;52411;52.716;6.696;2024-02-23T02:51:49;2.88;;;1.52;;
65691;SDS011;52411;52.716;6.696;2024-02-23T02:54:15;1.27;;;1.08;;
65691;SDS011;52411;52.716;6.696;2024-02-23T02:56:44;1.58;;;1.05;;
65691;SDS011;52411;52.716;6.696;2024-02-23T02:59:12;2.58;;;0.90;;
65691;SDS011;52411;52.716;6.696;2024-02-23T03:01:38;2.05;;;0.90;;
65691;SDS011;52411;52.716;6.696;2024-02-23T03:04:05;1.25;;;0.80;;
65691;SDS011;52411;52.716;6.696;2024-02-23T03:06:30;2.05;;;1.20;;
65691;SDS011;52411;52.716;6.696;2024-02-23T03:08:56;1.70;;;1.27;;
65691;SDS011;52411;52.716;6.696;2024-02-23T03:11:22;2.15;;;0.90;;
65691;SDS011;52411;52.716;6.696;2024-02-23T03:13:47;1.00;;;0.85;;
65691;SDS011;52411;52.716;6.696;2024-02-23T03:16:16;2.17;;;1.20;;
65691;SDS011;52411;52.716;6.696;2024-02-23T03:18:42;2.55;;;1.45;;
65691;SDS011;52411;52.716;6.696;2024-02-23T03:21:09;1.95;;;1.40;;
65691;SDS011;52411;52.716;6.696;2024-02-23T03:23:35;2.35;;;0.95;;
65691;SDS011;52411;52.716;6.696;2024-02-23T03:26:01;1.27;;;0.98;;
65691;SDS011;52411;52.716;6.696;2024-02-23T03:28:27;2.30;;;1.08;;
65691;SDS011;52411;52.716;6.696;2024-02-23T03:30:53;1.50;;;0.85;;
65691;SDS011;52411;52.716;6.696;2024-02-23T03:33:18;1.48;;;1.25;;
65691;SDS011;52411;52.716;6.696;2024-02-23T03:35:44;3.90;;;1.30;;
65691;SDS011;52411;52.716;6.696;2024-02-23T03:38:09;1.48;;;1.00;;
65691;SDS011;52411;52.716;6.696;2024-02-23T03:40:35;1.73;;;0.82;;
65691;SDS011;52411;52.716;6.696;2024-02-23T03:43:01;1.05;;;0.95;;
65691;SDS011;52411;52.716;6.696;2024-02-23T03:45:27;1.75;;;0.90;;
65691;SDS011;52411;52.716;6.696;2024-02-23T03:47:53;1.77;;;1.42;;
65691;SDS011;52411;52.716;6.696;2024-02-23T03:50:19;1.15;;;1.00;;
65691;SDS011;52411;52.716;6.696;2024-02-23T03:52:44;2.90;;;0.90;;
65691;SDS011;52411;52.716;6.696;2024-02-23T03:55:10;1.45;;;1.05;;
65691;SDS011;52411;52.716;6.696;2024-02-23T03:57:36;1.17;;;1.00;;
65691;SDS011;52411;52.716;6.696;2024-02-23T04:00:02;1.33;;;0.93;;
65691;SDS011;52411;52.716;6.696;2024-02-23T04:02:28;1.92;;;0.90;;
65691;SDS011;52411;52.716;6.696;2024-02-23T04:04:54;1.88;;;1.05;;
65691;SDS011;52411;52.716;6.696;2024-02-23T04:07:20;2.53;;;1.40;;
65691;SDS011;52411;52.716;6.696;2024-02-23T04:09:46;1.83;;;1.05;;
65691;SDS011;52411;52.716;6.696;2024-02-23T04:12:18;1.95;;;1.65;;
65691;SDS011;52411;52.716;6.696;2024-02-23T04:14:44;1.10;;;1.00;;
65691;SDS011;52411;52.716;6.696;2024-02-23T04:17:10;1.27;;;0.70;;
65691;SDS011;52411;52.716;6.696;2024-02-23T04:19:37;1.95;;;1.20;;
65691;SDS011;52411;52.716;6.696;2024-02-23T04:22:02;0.70;;;0.70;;
65691;SDS011;52411;52.716;6.696;2024-02-23T04:27:06;3.08;;;1.20;;
65691;SDS011;52411;52.716;6.696;2024-02-23T04:29:33;1.05;;;0.90;;
65691;SDS011;52411;52.716;6.696;2024-02-23T04:40:06;3.47;;;2.25;;
65691;SDS011;52411;52.716;6.696;2024-02-23T04:45:54;5.03;;;3.17;;
65691;SDS011;52411;52.716;6.696;2024-02-23T04:48:19;6.82;;;3.58;;
65691;SDS011;52411;52.716;6.696;2024-02-23T04:50:45;4.72;;;2.88;;
65691;SDS011;52411;52.716;6.696;2024-02-23T04:53:11;7.50;;;2.95;;
65691;SDS011;52411;52.716;6.696;2024-02-23T04:58:12;5.15;;;2.65;;
65691;SDS011;52411;52.716;6.696;2024-02-23T05:00:38;5.25;;;2.10;;
65691;SDS011;52411;52.716;6.696;2024-02-23T05:03:05;5.15;;;2.05;;
65691;SDS011;52411;52.716;6.696;2024-02-23T05:05:31;3.80;;;1.65;;
65691;SDS011;52411;52.716;6.696;2024-02-23T05:11:23;5.63;;;2.97;;
65691;SDS011;52411;52.716;6.696;2024-02-23T05:13:49;4.93;;;2.53;;
65691;SDS011;52411;52.716;6.696;2024-02-23T05:16:14;3.53;;;2.15;;
65691;SDS011;52411;52.716;6.696;2024-02-23T05:21:15;5.72;;;2.28;;
65691;SDS011;52411;52.716;6.696;2024-02-23T05:23:41;4.53;;;2.40;;
65691;SDS011;52411;52.716;6.696;2024-02-23T05:33:47;4.10;;;1.95;;
65691;SDS011;52411;52.716;6.696;2024-02-23T05:36:12;4.35;;;2.20;;
65691;SDS011;52411;52.716;6.696;2024-02-23T05:38:38;3.97;;;1.50;;
65691;SDS011;52411;52.716;6.696;2024-02-23T05:43:33;4.68;;;2.08;;
65691;SDS011;52411;52.716;6.696;2024-02-23T05:46:00;5.38;;;2.00;;
65691;SDS011;52411;52.716;6.696;2024-02-23T05:53:36;8.60;;;2.83;;
65691;SDS011;52411;52.716;6.696;2024-02-23T05:59:43;4.55;;;2.42;;
65691;SDS011;52411;52.716;6.696;2024-02-23T06:02:10;4.70;;;1.95;;
65691;SDS011;52411;52.716;6.696;2024-02-23T06:04:35;6.60;;;2.38;;
65691;SDS011;52411;52.716;6.696;2024-02-23T06:07:01;4.57;;;2.40;;
65691;SDS011;52411;52.716;6.696;2024-02-23T06:09:27;4.50;;;2.53;;
65691;SDS011;52411;52.716;6.696;2024-02-23T06:11:52;8.77;;;3.22;;
65691;SDS011;52411;52.716;6.696;2024-02-23T06:14:18;3.28;;;1.45;;
65691;SDS011;52411;52.716;6.696;2024-02-23T06:16:43;4.60;;;2.53;;
65691;SDS011;52411;52.716;6.696;2024-02-23T06:19:09;4.40;;;2.30;;
65691;SDS011;52411;52.716;6.696;2024-02-23T06:21:35;5.43;;;2.22;;
65691;SDS011;52411;52.716;6.696;2024-02-23T06:24:01;4.75;;;2.55;;
65691;SDS011;52411;52.716;6.696;2024-02-23T06:26:27;7.18;;;2.50;;
65691;SDS011;52411;52.716;6.696;2024-02-23T06:28:53;5.82;;;2.72;;
65691;SDS011;52411;52.716;6.696;2024-02-23T06:31:18;4.18;;;2.38;;
65691;SDS011;52411;52.716;6.696;2024-02-23T06:33:44;5.85;;;2.80;;
65691;SDS011;52411;52.716;6.696;2024-02-23T06:36:13;4.38;;;2.35;;
65691;SDS011;52411;52.716;6.696;2024-02-23T06:38:39;4.95;;;2.38;;
65691;SDS011;52411;52.716;6.696;2024-02-23T06:41:05;5.60;;;1.95;;
65691;SDS011;52411;52.716;6.696;2024-02-23T06:43:30;7.45;;;2.40;;
65691;SDS011;52411;52.716;6.696;2024-02-23T06:45:56;9.38;;;2.42;;
65691;SDS011;52411;52.716;6.696;2024-02-23T06:48:23;4.22;;;1.92;;
65691;SDS011;52411;52.716;6.696;2024-02-23T06:50:49;5.50;;;3.00;;
65691;SDS011;52411;52.716;6.696;2024-02-23T06:53:14;6.53;;;2.42;;
65691;SDS011;52411;52.716;6.696;2024-02-23T06:55:40;3.40;;;2.20;;
65691;SDS011;52411;52.716;6.696;2024-02-23T06:58:06;3.35;;;1.90;;
65691;SDS011;52411;52.716;6.696;2024-02-23T07:00:32;5.10;;;1.92;;
65691;SDS011;52411;52.716;6.696;2024-02-23T07:02:58;4.57;;;2.17;;
65691;SDS011;52411;52.716;6.696;2024-02-23T07:05:24;2.60;;;1.85;;
65691;SDS011;52411;52.716;6.696;2024-02-23T07:07:50;4.80;;;1.50;;
65691;SDS011;52411;52.716;6.696;2024-02-23T07:10:16;3.50;;;2.08;;
65691;SDS011;52411;52.716;6.696;2024-02-23T07:12:43;3.22;;;1.85;;
65691;SDS011;52411;52.716;6.696;2024-02-23T07:15:09;4.80;;;1.77;;
65691;SDS011;52411;52.716;6.696;2024-02-23T07:17:35;4.18;;;1.70;;
65691;SDS011;52411;52.716;6.696;2024-02-23T07:20:01;5.57;;;1.70;;
65691;SDS011;52411;52.716;6.696;2024-02-23T07:22:31;4.28;;;1.42;;
65691;SDS011;52411;52.716;6.696;2024-02-23T07:24:57;2.95;;;1.38;;
65691;SDS011;52411;52.716;6.696;2024-02-23T07:27:22;2.20;;;1.40;;
65691;SDS011;52411;52.716;6.696;2024-02-23T07:29:48;5.18;;;1.65;;
65691;SDS011;52411;52.716;6.696;2024-02-23T07:32:14;4.57;;;1.70;;
65691;SDS011;52411;52.716;6.696;2024-02-23T07:34:39;4.30;;;1.45;;
65691;SDS011;52411;52.716;6.696;2024-02-23T07:37:05;2.63;;;1.30;;
65691;SDS011;52411;52.716;6.696;2024-02-23T07:39:30;3.85;;;1.63;;
65691;SDS011;52411;52.716;6.696;2024-02-23T07:41:56;3.08;;;1.65;;
65691;SDS011;52411;52.716;6.696;2024-02-23T07:44:22;2.33;;;1.70;;
65691;SDS011;52411;52.716;6.696;2024-02-23T07:46:48;3.30;;;1.73;;
65691;SDS011;52411;52.716;6.696;2024-02-23T07:49:14;4.30;;;1.58;;
65691;SDS011;52411;52.716;6.696;2024-02-23T07:51:39;2.45;;;1.52;;
65691;SDS011;52411;52.716;6.696;2024-02-23T07:54:05;3.03;;;1.60;;
65691;SDS011;52411;52.716;6.696;2024-02-23T07:56:30;2.65;;;1.48;;
65691;SDS011;52411;52.716;6.696;2024-02-23T07:58:56;5.57;;;1.67;;
65691;SDS011;52411;52.716;6.696;2024-02-23T08:01:22;2.45;;;1.30;;
65691;SDS011;52411;52.716;6.696;2024-02-23T08:03:48;1.50;;;1.20;;
65691;SDS011;52411;52.716;6.696;2024-02-23T08:06:14;3.75;;;2.05;;
65691;SDS011;52411;52.716;6.696;2024-02-23T08:08:39;2.55;;;1.60;;
65691;SDS011;52411;52.716;6.696;2024-02-23T08:11:05;4.30;;;1.70;;
65691;SDS011;52411;52.716;6.696;2024-02-23T08:13:30;1.98;;;1.10;;
65691;SDS011;52411;52.716;6.696;2024-02-23T08:15:57;3.95;;;1.35;;
65691;SDS011;52411;52.716;6.696;2024-02-23T08:18:23;4.78;;;1.35;;
65691;SDS011;52411;52.716;6.696;2024-02-23T08:20:49;1.45;;;0.90;;
65691;SDS011;52411;52.716;6.696;2024-02-23T08:23:14;3.95;;;1.20;;
65691;SDS011;52411;52.716;6.696;2024-02-23T08:25:40;3.00;;;1.23;;
65691;SDS011;52411;52.716;6.696;2024-02-23T08:28:06;3.72;;;1.48;;
65691;SDS011;52411;52.716;6.696;2024-02-23T08:30:32;3.63;;;1.38;;
65691;SDS011;52411;52.716;6.696;2024-02-23T08:32:58;2.33;;;1.20;;
65691;SDS011;52411;52.716;6.696;2024-02-23T08:35:24;2.83;;;1.10;;
65691;SDS011;52411;52.716;6.696;2024-02-23T08:37:50;2.13;;;0.90;;
65691;SDS011;52411;52.716;6.696;2024-02-23T08:40:16;2.17;;;1.20;;
65691;SDS011;52411;52.716;6.696;2024-02-23T08:42:41;4.15;;;1.33;;
65691;SDS011;52411;52.716;6.696;2024-02-23T08:45:07;1.30;;;1.00;;
65691;SDS011;52411;52.716;6.696;2024-02-23T08:47:35;1.92;;;1.00;;
65691;SDS011;52411;52.716;6.696;2024-02-23T08:50:01;1.95;;;1.20;;
65691;SDS011;52411;52.716;6.696;2024-02-23T08:52:27;2.22;;;1.25;;
65691;SDS011;52411;52.716;6.696;2024-02-23T08:54:53;1.88;;;1.27;;
65691;SDS011;52411;52.716;6.696;2024-02-23T08:57:19;2.75;;;0.90;;
65691;SDS011;52411;52.716;6.696;2024-02-23T08:59:45;1.63;;;0.90;;
65691;SDS011;52411;52.716;6.696;2024-02-23T09:02:11;2.60;;;1.17;;
65691;SDS011;52411;52.716;6.696;2024-02-23T09:04:37;3.80;;;1.30;;
65691;SDS011;52411;52.716;6.696;2024-02-23T09:07:02;1.50;;;1.08;;
65691;SDS011;52411;52.716;6.696;2024-02-23T09:09:28;5.50;;;1.52;;
65691;SDS011;52411;52.716;6.696;2024-02-23T09:11:55;1.98;;;1.25;;
65691;SDS011;52411;52.716;6.696;2024-02-23T09:14:20;1.92;;;0.98;;
65691;SDS011;52411;52.716;6.696;2024-02-23T09:16:46;1.55;;;1.00;;
65691;SDS011;52411;52.716;6.696;2024-02-23T09:19:15;2.40;;;1.38;;
65691;SDS011;52411;52.716;6.696;2024-02-23T09:21:44;1.45;;;0.88;;
65691;SDS011;52411;52.716;6.696;2024-02-23T09:24:10;3.28;;;1.20;;
65691;SDS011;52411;52.716;6.696;2024-02-23T09:26:36;1.58;;;0.88;;
65691;SDS011;52411;52.716;6.696;2024-02-23T09:29:01;1.65;;;0.85;;
65691;SDS011;52411;52.716;6.696;2024-02-23T09:31:27;1.95;;;1.20;;
65691;SDS011;52411;52.716;6.696;2024-02-23T09:33:56;1.92;;;0.95;;
65691;SDS011;52411;52.716;6.696;2024-02-23T09:36:22;3.17;;;1.23;;
65691;SDS011;52411;52.716;6.696;2024-02-23T09:38:48;1.17;;;0.93;;
65691;SDS011;52411;52.716;6.696;2024-02-23T09:41:19;1.85;;;1.17;;
65691;SDS011;52411;52.716;6.696;2024-02-23T09:43:46;1.75;;;1.20;;
65691;SDS011;52411;52.716;6.696;2024-02-23T09:46:16;6.97;;;1.52;;
65691;SDS011;52411;52.716;6.696;2024-02-23T09:48:43;2.83;;;1.10;;
65691;SDS011;52411;52.716;6.696;2024-02-23T09:51:13;1.63;;;1.20;;
65691;SDS011;52411;52.716;6.696;2024-02-23T09:53:40;1.40;;;1.10;;
65691;SDS011;52411;52.716;6.696;2024-02-23T09:56:08;3.53;;;1.80;;
65691;SDS011;52411;52.716;6.696;2024-02-23T09:58:34;3.95;;;1.30;;
65691;SDS011;52411;52.716;6.696;2024-02-23T10:01:02;2.80;;;1.20;;
65691;SDS011;52411;52.716;6.696;2024-02-23T10:03:28;3.58;;;1.58;;
65691;SDS011;52411;52.716;6.696;2024-02-23T10:05:58;2.65;;;1.00;;
65691;SDS011;52411;52.716;6.696;2024-02-23T10:08:26;1.70;;;0.95;;
65691;SDS011;52411;52.716;6.696;2024-02-23T10:10:52;3.03;;;1.10;;
65691;SDS011;52411;52.716;6.696;2024-02-23T10:13:27;1.05;;;0.80;;
65691;SDS011;52411;52.716;6.696;2024-02-23T10:15:54;3.67;;;0.93;;
65691;SDS011;52411;52.716;6.696;2024-02-23T10:18:20;1.55;;;0.77;;
65691;SDS011;52411;52.716;6.696;2024-02-23T10:20:46;2.42;;;1.20;;
65691;SDS011;52411;52.716;6.696;2024-02-23T10:23:12;2.05;;;0.93;;
65691;SDS011;52411;52.716;6.696;2024-02-23T10:25:38;1.83;;;0.90;;
65691;SDS011;52411;52.716;6.696;2024-02-23T10:28:05;2.78;;;0.98;;
65691;SDS011;52411;52.716;6.696;2024-02-23T10:30:32;1.55;;;1.10;;
65691;SDS011;52411;52.716;6.696;2024-02-23T10:32:58;2.70;;;0.93;;
65691;SDS011;52411;52.716;6.696;2024-02-23T10:35:25;2.03;;;1.05;;
65691;SDS011;52411;52.716;6.696;2024-02-23T10:37:52;2.50;;;0.80;;
65691;SDS011;52411;52.716;6.696;2024-02-23T10:40:19;5.22;;;1.20;;
65691;SDS011;52411;52.716;6.696;2024-02-23T10:42:46;1.70;;;1.23;;
65691;SDS011;52411;52.716;6.696;2024-02-23T10:45:19;0.90;;;0.70;;
65691;SDS011;52411;52.716;6.696;2024-02-23T10:47:53;2.72;;;0.93;;
65691;SDS011;52411;52.716;6.696;2024-02-23T10:50:20;2.78;;;0.88;;
65691;SDS011;52411;52.716;6.696;2024-02-23T10:52:49;1.40;;;0.90;;
65691;SDS011;52411;52.716;6.696;2024-02-23T10:55:15;2.05;;;0.90;;
65691;SDS011;52411;52.716;6.696;2024-02-23T10:57:42;1.15;;;0.90;;
65691;SDS011;52411;52.716;6.696;2024-02-23T11:00:08;1.15;;;0.80;;
65691;SDS011;52411;52.716;6.696;2024-02-23T11:02:45;2.03;;;0.80;;
65691;SDS011;52411;52.716;6.696;2024-02-23T11:05:15;1.42;;;0.90;;
65691;SDS011;52411;52.716;6.696;2024-02-23T11:07:41;2.40;;;0.90;;
65691;SDS011;52411;52.716;6.696;2024-02-23T11:10:07;3.35;;;1.02;;
65691;SDS011;52411;52.716;6.696;2024-02-23T11:12:36;4.07;;;1.33;;
65691;SDS011;52411;52.716;6.696;2024-02-23T11:15:02;1.52;;;1.20;;
65691;SDS011;52411;52.716;6.696;2024-02-23T11:17:31;1.92;;;0.90;;
65691;SDS011;52411;52.716;6.696;2024-02-23T11:19:57;3.00;;;0.68;;
65691;SDS011;52411;52.716;6.696;2024-02-23T11:22:27;1.90;;;0.88;;
65691;SDS011;52411;52.716;6.696;2024-02-23T11:24:59;1.73;;;1.13;;
65691;SDS011;52411;52.716;6.696;2024-02-23T11:27:29;2.50;;;0.90;;
65691;SDS011;52411;52.716;6.696;2024-02-23T11:30:06;1.08;;;0.82;;
65691;SDS011;52411;52.716;6.696;2024-02-23T11:32:36;2.72;;;1.23;;
65691;SDS011;52411;52.716;6.696;2024-02-23T11:35:04;2.63;;;0.93;;
65691;SDS011;52411;52.716;6.696;2024-02-23T11:37:31;4.63;;;0.90;;
65691;SDS011;52411;52.716;6.696;2024-02-23T11:39:58;3.40;;;1.33;;
65691;SDS011;52411;52.716;6.696;2024-02-23T11:42:26;2.70;;;1.35;;
65691;SDS011;52411;52.716;6.696;2024-02-23T11:44:52;1.42;;;0.88;;
65691;SDS011;52411;52.716;6.696;2024-02-23T11:47:22;1.27;;;0.90;;
65691;SDS011;52411;52.716;6.696;2024-02-23T11:49:48;1.35;;;0.98;;
65691;SDS011;52411;52.716;6.696;2024-02-23T11:52:13;4.30;;;1.13;;
65691;SDS011;52411;52.716;6.696;2024-02-23T11:54:40;1.83;;;1.20;;
65691;SDS011;52411;52.716;6.696;2024-02-23T11:57:06;3.20;;;1.10;;
65691;SDS011;52411;52.716;6.696;2024-02-23T11:59:35;1.92;;;0.80;;
65691;SDS011;52411;52.716;6.696;2024-02-23T12:02:01;1.08;;;0.95;;
65691;SDS011;52411;52.716;6.696;2024-02-23T12:04:27;2.70;;;1.00;;
65691;SDS011;52411;52.716;6.696;2024-02-23T12:06:54;2.55;;;1.27;;
65691;SDS011;52411;52.716;6.696;2024-02-23T12:09:20;2.80;;;1.10;;
65691;SDS011;52411;52.716;6.696;2024-02-23T12:11:46;6.28;;;1.10;;
65691;SDS011;52411;52.716;6.696;2024-02-23T12:14:13;1.13;;;0.80;;
65691;SDS011;52411;52.716;6.696;2024-02-23T12:16:39;1.83;;;1.00;;
65691;SDS011;52411;52.716;6.696;2024-02-23T12:19:07;2.53;;;0.82;;
65691;SDS011;52411;52.716;6.696;2024-02-23T12:21:36;2.92;;;0.90;;
65691;SDS011;52411;52.716;6.696;2024-02-23T12:24:05;1.52;;;0.88;;
65691;SDS011;52411;52.716;6.696;2024-02-23T12:26:33;2.70;;;1.23;;
65691;SDS011;52411;52.716;6.696;2024-02-23T12:29:02;2.63;;;0.88;;
65691;SDS011;52411;52.716;6.696;2024-02-23T12:31:28;2.28;;;0.95;;
65691;SDS011;52411;52.716;6.696;2024-02-23T12:33:57;2.05;;;1.02;;
65691;SDS011;52411;52.716;6.696;2024-02-23T12:36:23;3.28;;;1.00;;
65691;SDS011;52411;52.716;6.696;2024-02-23T12:38:48;1.75;;;1.00;;
65691;SDS011;52411;52.716;6.696;2024-02-23T12:41:14;4.55;;;1.08;;
65691;SDS011;52411;52.716;6.696;2024-02-23T12:43:40;4.50;;;1.10;;
65691;SDS011;52411;52.716;6.696;2024-02-23T12:46:06;2.60;;;1.13;;
65691;SDS011;52411;52.716;6.696;2024-02-23T12:48:33;4.55;;;1.17;;
65691;SDS011;52411;52.716;6.696;2024-02-23T12:51:00;3.33;;;1.25;;
65691;SDS011;52411;52.716;6.696;2024-02-23T12:53:35;4.07;;;1.20;;
65691;SDS011;52411;52.716;6.696;2024-02-23T12:56:09;4.10;;;1.13;;
65691;SDS011;52411;52.716;6.696;2024-02-23T12:58:41;1.90;;;0.90;;
65691;SDS011;52411;52.716;6.696;2024-02-23T13:01:08;1.38;;;0.90;;
65691;SDS011;52411;52.716;6.696;2024-02-23T13:03:34;2.67;;;1.20;;
65691;SDS011;52411;52.716;6.696;2024-02-23T13:06:01;1.02;;;0.80;;
65691;SDS011;52411;52.716;6.696;2024-02-23T13:08:27;3.35;;;1.20;;
65691;SDS011;52411;52.716;6.696;2024-02-23T13:10:54;2.65;;;1.10;;
65691;SDS011;52411;52.716;6.696;2024-02-23T13:13:20;2.28;;;1.40;;
65691;SDS011;52411;52.716;6.696;2024-02-23T13:15:47;3.58;;;1.25;;
65691;SDS011;52411;52.716;6.696;2024-02-23T13:18:13;1.20;;;0.80;;
65691;SDS011;52411;52.716;6.696;2024-02-23T13:20:39;1.95;;;1.13;;
65691;SDS011;52411;52.716;6.696;2024-02-23T13:23:08;1.50;;;0.98;;
65691;SDS011;52411;52.716;6.696;2024-02-23T13:25:35;1.75;;;1.00;;
65691;SDS011;52411;52.716;6.696;2024-02-23T13:28:01;0.93;;;0.90;;
65691;SDS011;52411;52.716;6.696;2024-02-23T13:30:26;1.60;;;1.00;;
65691;SDS011;52411;52.716;6.696;2024-02-23T13:32:52;1.73;;;1.00;;
65691;SDS011;52411;52.716;6.696;2024-02-23T13:35:18;2.45;;;0.90;;
65691;SDS011;52411;52.716;6.696;2024-02-23T13:37:44;3.65;;;1.20;;
65691;SDS011;52411;52.716;6.696;2024-02-23T13:40:10;2.67;;;1.23;;
65691;SDS011;52411;52.716;6.696;2024-02-23T13:42:36;1.58;;;1.20;;
65691;SDS011;52411;52.716;6.696;2024-02-23T13:45:04;1.58;;;1.00;;
65691;SDS011;52411;52.716;6.696;2024-02-23T13:47:34;2.88;;;1.05;;
65691;SDS011;52411;52.716;6.696;2024-02-23T13:50:00;1.02;;;0.93;;
65691;SDS011;52411;52.716;6.696;2024-02-23T13:52:26;1.27;;;0.90;;
65691;SDS011;52411;52.716;6.696;2024-02-23T13:54:53;2.05;;;1.10;;
65691;SDS011;52411;52.716;6.696;2024-02-23T13:57:18;3.13;;;1.50;;
65691;SDS011;52411;52.716;6.696;2024-02-23T13:59:44;1.98;;;1.10;;
65691;SDS011;52411;52.716;6.696;2024-02-23T14:02:09;1.40;;;1.08;;
65691;SDS011;52411;52.716;6.696;2024-02-23T14:04:35;2.90;;;1.10;;
65691;SDS011;52411;52.716;6.696;2024-02-23T14:07:01;2.33;;;1.40;;
65691;SDS011;52411;52.716;6.696;2024-02-23T14:09:26;1.52;;;1.23;;
65691;SDS011;52411;52.716;6.696;2024-02-23T14:11:52;1.73;;;1.40;;
65691;SDS011;52411;52.716;6.696;2024-02-23T14:14:18;4.80;;;1.27;;
65691;SDS011;52411;52.716;6.696;2024-02-23T14:16:45;1.35;;;1.00;;
65691;SDS011;52411;52.716;6.696;2024-02-23T14:19:11;3.50;;;1.50;;
65691;SDS011;52411;52.716;6.696;2024-02-23T14:21:36;0.88;;;0.82;;
65691;SDS011;52411;52.716;6.696;2024-02-23T14:24:02;1.75;;;1.05;;
65691;SDS011;52411;52.716;6.696;2024-02-23T14:26:29;2.75;;;1.10;;
65691;SDS011;52411;52.716;6.696;2024-02-23T14:28:54;2.83;;;1.10;;
65691;SDS011;52411;52.716;6.696;2024-02-23T14:31:20;4.97;;;1.42;;
65691;SDS011;52411;52.716;6.696;2024-02-23T14:33:46;5.60;;;1.20;;
65691;SDS011;52411;52.716;6.696;2024-02-23T14:36:15;3.63;;;1.15;;
65691;SDS011;52411;52.716;6.696;2024-02-23T14:38:41;2.03;;;0.98;;
65691;SDS011;52411;52.716;6.696;2024-02-23T14:41:07;1.92;;;1.20;;
65691;SDS011;52411;52.716;6.696;2024-02-23T14:43:34;2.92;;;1.20;;
65691;SDS011;52411;52.716;6.696;2024-02-23T14:46:01;1.65;;;0.95;;
65691;SDS011;52411;52.716;6.696;2024-02-23T14:48:27;3.15;;;1.42;;
65691;SDS011;52411;52.716;6.696;2024-02-23T14:50:52;1.50;;;1.10;;
65691;SDS011;52411;52.716;6.696;2024-02-23T14:53:18;2.83;;;1.63;;
65691;SDS011;52411;52.716;6.696;2024-02-23T14:55:44;2.28;;;1.38;;
65691;SDS011;52411;52.716;6.696;2024-02-23T14:58:09;2.75;;;1.40;;
65691;SDS011;52411;52.716;6.696;2024-02-23T15:00:35;1.65;;;1.10;;
65691;SDS011;52411;52.716;6.696;2024-02-23T15:03:01;1.77;;;1.20;;
65691;SDS011;52411;52.716;6.696;2024-02-23T15:05:28;3.70;;;1.42;;
65691;SDS011;52411;52.716;6.696;2024-02-23T15:07:54;2.13;;;1.30;;
65691;SDS011;52411;52.716;6.696;2024-02-23T15:10:20;3.03;;;1.35;;
65691;SDS011;52411;52.716;6.696;2024-02-23T15:12:45;2.55;;;1.30;;
65691;SDS011;52411;52.716;6.696;2024-02-23T15:15:11;2.28;;;1.08;;
65691;SDS011;52411;52.716;6.696;2024-02-23T15:17:37;3.10;;;1.42;;
65691;SDS011;52411;52.716;6.696;2024-02-23T15:20:03;2.47;;;1.25;;
65691;SDS011;52411;52.716;6.696;2024-02-23T15:22:29;1.92;;;1.10;;
65691;SDS011;52411;52.716;6.696;2024-02-23T15:24:55;2.42;;;1.75;;